This is the latest recevied weather packets stored in our database for station/object F4AMY-13. If no packets are shown the sender has not sent any weather packets the latest 10 day(s).
| Time | Temp. | Humidity | Pressure | Rain* | Wind** | Luminosity | Snow |
|---|---|---|---|---|---|---|---|
| 1777826417 | 19.44° C | 50% | 1015.2 hPa | 0 mm | 15.2 m/s, ° | 34 W/m² | - |
| 1777826118 | 19.44° C | 51% | 1015.1 hPa | 0 mm | 16.54 m/s, ° | 37 W/m² | - |
| 1777825817 | 19.44° C | 50% | 1015.2 hPa | 0 mm | 17.43 m/s, ° | 39 W/m² | - |
| 1777825517 | 20° C | 51% | 1015.2 hPa | 0 mm | 17.88 m/s, ° | 40 W/m² | - |
| 1777825217 | 20° C | 50% | 1015.4 hPa | 0 mm | 18.78 m/s, ° | 42 W/m² | - |
| 1777824917 | 20° C | 48% | 1015.6 hPa | 0 mm | 25.03 m/s, ° | 56 W/m² | - |
| 1777824617 | 20° C | 49% | 1015.3 hPa | 0 mm | 26.38 m/s, ° | 59 W/m² | - |
| 1777824317 | 20.56° C | 47% | 1015.2 hPa | 0 mm | 27.27 m/s, ° | 61 W/m² | - |
| 1777824017 | 20.56° C | 48% | 1015.3 hPa | 0 mm | 28.16 m/s, ° | 63 W/m² | - |
| 1777823717 | 20.56° C | 48% | 1015.2 hPa | 0 mm | 28.61 m/s, ° | 64 W/m² | - |
| 1777823417 | 20.56° C | 46% | 1015.2 hPa | 0 mm | 29.95 m/s, ° | 67 W/m² | - |
| 1777823117 | 21.11° C | 45% | 1015.1 hPa | 0 mm | 31.74 m/s, ° | 71 W/m² | - |
| 1777822817 | 21.11° C | 45% | 1015.1 hPa | 0 mm | 29.95 m/s, ° | 67 W/m² | - |
| 1777822517 | 21.11° C | 46% | 1015.1 hPa | 0 mm | 32.63 m/s, ° | 73 W/m² | - |
| 1777822217 | 21.11° C | 45% | 1015.2 hPa | 0 mm | 33.08 m/s, ° | 74 W/m² | - |
| 1777821917 | 21.11° C | 46% | 1015.1 hPa | 0 mm | 37.55 m/s, ° | 84 W/m² | - |
| 1777821617 | 21.11° C | 45% | 1015 hPa | 0 mm | 50.96 m/s, ° | 114 W/m² | - |
| 1777821316 | 21.11° C | 45% | 1015.1 hPa | 0 mm | 56.77 m/s, ° | 127 W/m² | - |
| 1777821016 | 21.11° C | 41% | 1015.3 hPa | 0 mm | 51.41 m/s, ° | 115 W/m² | - |
| 1777820716 | 21.11° C | 45% | 1015.1 hPa | 0 mm | 47.39 m/s, ° | 106 W/m² | - |
| 1777820416 | 21.11° C | 49% | 1015 hPa | 0 mm | 49.17 m/s, ° | 110 W/m² | - |
| 1777820116 | 21.67° C | 44% | 1015.1 hPa | 0 mm | 46.94 m/s, ° | 105 W/m² | - |
| 1777819816 | 21.67° C | 44% | 1015.4 hPa | 0 mm | 43.36 m/s, ° | 97 W/m² | - |
| 1777819516 | 21.67° C | 45% | 1015.3 hPa | 0 mm | 50.96 m/s, ° | 114 W/m² | - |
| 1777819216 | 21.67° C | 42% | 1015.4 hPa | 0 mm | 63.03 m/s, ° | 141 W/m² | - |
* Rain latest hour (hover to see other rain measurements)
** Current wind speed in m/s (hover to see current wind gust speed)